sensor_id;sensor_type;location;lat;lon;timestamp;temperature;humidity
8402;DHT22;4238;48.404;9.498;2024-03-07T05:00:38;2.60;99.90
8402;DHT22;4238;48.404;9.498;2024-03-07T05:03:05;2.60;99.90
8402;DHT22;4238;48.404;9.498;2024-03-07T05:05:32;2.50;99.90
8402;DHT22;4238;48.404;9.498;2024-03-07T05:07:59;2.50;99.90
8402;DHT22;4238;48.404;9.498;2024-03-07T05:10:26;2.50;99.90
8402;DHT22;4238;48.404;9.498;2024-03-07T05:12:55;2.60;99.90
8402;DHT22;4238;48.404;9.498;2024-03-07T05:15:24;2.70;99.90
8402;DHT22;4238;48.404;9.498;2024-03-07T05:17:52;2.70;99.90
8402;DHT22;4238;48.404;9.498;2024-03-07T05:20:21;2.60;99.90
8402;DHT22;4238;48.404;9.498;2024-03-07T05:22:48;2.50;99.90
8402;DHT22;4238;48.404;9.498;2024-03-07T05:25:16;2.40;99.90
8402;DHT22;4238;48.404;9.498;2024-03-07T05:27:44;2.50;99.90
8402;DHT22;4238;48.404;9.498;2024-03-07T05:30:11;2.60;99.90
8402;DHT22;4238;48.404;9.498;2024-03-07T05:32:40;2.50;99.90
8402;DHT22;4238;48.404;9.498;2024-03-07T05:35:10;2.60;99.90
8402;DHT22;4238;48.404;9.498;2024-03-07T05:37:37;2.60;99.90
8402;DHT22;4238;48.404;9.498;2024-03-07T05:40:08;2.60;99.90
8402;DHT22;4238;48.404;9.498;2024-03-07T05:42:35;2.60;99.90
8402;DHT22;4238;48.404;9.498;2024-03-07T05:45:01;2.60;99.90
8402;DHT22;4238;48.404;9.498;2024-03-07T05:47:29;2.50;99.90
8402;DHT22;4238;48.404;9.498;2024-03-07T05:49:56;2.50;99.90
8402;DHT22;4238;48.404;9.498;2024-03-07T05:52:24;2.50;99.90
8402;DHT22;4238;48.404;9.498;2024-03-07T05:54:51;2.50;99.90
8402;DHT22;4238;48.404;9.498;2024-03-07T05:57:17;2.50;99.90
8402;DHT22;4238;48.404;9.498;2024-03-07T05:59:45;2.50;99.90
8402;DHT22;4238;48.404;9.498;2024-03-07T06:02:13;2.60;99.90
8402;DHT22;4238;48.404;9.498;2024-03-07T06:04:41;2.60;99.90
8402;DHT22;4238;48.404;9.498;2024-03-07T06:07:08;2.80;99.90
8402;DHT22;4238;48.404;9.498;2024-03-07T06:09:37;2.80;99.90
8402;DHT22;4238;48.404;9.498;2024-03-07T06:12:04;2.70;99.90
8402;DHT22;4238;48.404;9.498;2024-03-07T06:14:34;2.60;99.90
8402;DHT22;4238;48.404;9.498;2024-03-07T06:17:01;2.50;99.90
8402;DHT22;4238;48.404;9.498;2024-03-07T06:19:27;2.50;99.90
8402;DHT22;4238;48.404;9.498;2024-03-07T06:21:56;2.50;99.90
8402;DHT22;4238;48.404;9.498;2024-03-07T06:24:23;2.40;99.90
8402;DHT22;4238;48.404;9.498;2024-03-07T06:26:54;2.60;99.90
8402;DHT22;4238;48.404;9.498;2024-03-07T06:29:26;2.60;99.90
8402;DHT22;4238;48.404;9.498;2024-03-07T06:31:54;2.60;99.90
8402;DHT22;4238;48.404;9.498;2024-03-07T06:34:21;2.50;99.90
8402;DHT22;4238;48.404;9.498;2024-03-07T06:36:48;2.50;99.90
8402;DHT22;4238;48.404;9.498;2024-03-07T06:39:15;2.50;99.90
8402;DHT22;4238;48.404;9.498;2024-03-07T06:41:41;2.60;99.90
8402;DHT22;4238;48.404;9.498;2024-03-07T06:44:11;2.50;99.90
8402;DHT22;4238;48.404;9.498;2024-03-07T06:46:37;2.40;99.90
8402;DHT22;4238;48.404;9.498;2024-03-07T06:49:04;2.50;99.90
8402;DHT22;4238;48.404;9.498;2024-03-07T06:51:35;2.30;99.90
8402;DHT22;4238;48.404;9.498;2024-03-07T06:54:02;2.30;99.90
8402;DHT22;4238;48.404;9.498;2024-03-07T06:56:31;2.20;99.90
8402;DHT22;4238;48.404;9.498;2024-03-07T06:58:57;2.30;99.90
8402;DHT22;4238;48.404;9.498;2024-03-07T07:01:26;2.30;99.90
8402;DHT22;4238;48.404;9.498;2024-03-07T07:03:54;2.40;99.90
8402;DHT22;4238;48.404;9.498;2024-03-07T07:06:24;2.60;99.90
8402;DHT22;4238;48.404;9.498;2024-03-07T07:08:51;2.50;99.90
8402;DHT22;4238;48.404;9.498;2024-03-07T07:11:18;2.50;99.90
8402;DHT22;4238;48.404;9.498;2024-03-07T07:13:45;2.40;99.90
8402;DHT22;4238;48.404;9.498;2024-03-07T07:16:12;2.30;99.90
8402;DHT22;4238;48.404;9.498;2024-03-07T07:18:40;2.40;99.90
8402;DHT22;4238;48.404;9.498;2024-03-07T07:21:08;2.40;99.90
8402;DHT22;4238;48.404;9.498;2024-03-07T07:23:36;2.40;99.90
8402;DHT22;4238;48.404;9.498;2024-03-07T07:26:03;2.40;99.90
8402;DHT22;4238;48.404;9.498;2024-03-07T07:28:31;2.30;99.90
8402;DHT22;4238;48.404;9.498;2024-03-07T07:30:58;2.30;99.90
8402;DHT22;4238;48.404;9.498;2024-03-07T07:33:25;2.30;99.90
8402;DHT22;4238;48.404;9.498;2024-03-07T07:35:53;2.20;99.90
8402;DHT22;4238;48.404;9.498;2024-03-07T07:38:20;2.20;99.90
8402;DHT22;4238;48.404;9.498;2024-03-07T07:40:47;2.20;99.90
8402;DHT22;4238;48.404;9.498;2024-03-07T07:43:16;2.20;99.90
8402;DHT22;4238;48.404;9.498;2024-03-07T07:45:44;2.30;99.90
8402;DHT22;4238;48.404;9.498;2024-03-07T07:48:11;2.30;99.90
8402;DHT22;4238;48.404;9.498;2024-03-07T07:50:38;2.20;99.90
8402;DHT22;4238;48.404;9.498;2024-03-07T07:53:06;2.20;99.90
8402;DHT22;4238;48.404;9.498;2024-03-07T07:55:35;2.30;99.90
8402;DHT22;4238;48.404;9.498;2024-03-07T07:58:02;2.30;99.90
8402;DHT22;4238;48.404;9.498;2024-03-07T08:00:30;2.20;99.90
8402;DHT22;4238;48.404;9.498;2024-03-07T08:02:58;2.30;99.90
8402;DHT22;4238;48.404;9.498;2024-03-07T08:05:26;2.20;99.90
8402;DHT22;4238;48.404;9.498;2024-03-07T08:07:54;2.20;99.90
8402;DHT22;4238;48.404;9.498;2024-03-07T08:10:26;2.40;99.90
8402;DHT22;4238;48.404;9.498;2024-03-07T08:12:54;2.40;99.90
8402;DHT22;4238;48.404;9.498;2024-03-07T08:15:21;2.30;99.90
8402;DHT22;4238;48.404;9.498;2024-03-07T08:17:49;2.40;99.90
8402;DHT22;4238;48.404;9.498;2024-03-07T08:20:19;2.30;99.90
8402;DHT22;4238;48.404;9.498;2024-03-07T08:22:46;2.30;99.90
8402;DHT22;4238;48.404;9.498;2024-03-07T08:25:14;2.30;99.90
8402;DHT22;4238;48.404;9.498;2024-03-07T08:27:45;2.30;99.90
8402;DHT22;4238;48.404;9.498;2024-03-07T08:30:12;2.30;99.90
8402;DHT22;4238;48.404;9.498;2024-03-07T08:32:40;2.40;99.90
8402;DHT22;4238;48.404;9.498;2024-03-07T08:35:08;2.40;99.90
8402;DHT22;4238;48.404;9.498;2024-03-07T08:37:36;2.40;99.90
8402;DHT22;4238;48.404;9.498;2024-03-07T08:40:03;2.30;99.90
8402;DHT22;4238;48.404;9.498;2024-03-07T08:42:33;2.40;99.90
8402;DHT22;4238;48.404;9.498;2024-03-07T08:45:01;2.50;99.90
8402;DHT22;4238;48.404;9.498;2024-03-07T08:47:30;2.50;99.90
8402;DHT22;4238;48.404;9.498;2024-03-07T08:49:57;2.50;99.90
8402;DHT22;4238;48.404;9.498;2024-03-07T08:52:24;2.60;99.90
8402;DHT22;4238;48.404;9.498;2024-03-07T08:54:50;2.50;99.90
8402;DHT22;4238;48.404;9.498;2024-03-07T08:57:17;2.50;99.90
8402;DHT22;4238;48.404;9.498;2024-03-07T08:59:45;2.40;99.90
8402;DHT22;4238;48.404;9.498;2024-03-07T09:02:14;2.40;99.90
8402;DHT22;4238;48.404;9.498;2024-03-07T09:04:41;2.60;99.90
8402;DHT22;4238;48.404;9.498;2024-03-07T09:07:08;2.60;99.90
8402;DHT22;4238;48.404;9.498;2024-03-07T09:09:35;2.60;99.90
8402;DHT22;4238;48.404;9.498;2024-03-07T09:12:02;2.60;99.90
8402;DHT22;4238;48.404;9.498;2024-03-07T09:14:29;2.60;99.90
8402;DHT22;4238;48.404;9.498;2024-03-07T09:16:56;2.50;99.90
8402;DHT22;4238;48.404;9.498;2024-03-07T09:19:24;2.50;99.90
8402;DHT22;4238;48.404;9.498;2024-03-07T09:21:51;2.60;99.90
8402;DHT22;4238;48.404;9.498;2024-03-07T09:24:18;2.50;99.90
8402;DHT22;4238;48.404;9.498;2024-03-07T09:26:47;2.50;99.90
8402;DHT22;4238;48.404;9.498;2024-03-07T09:29:14;2.50;99.90
8402;DHT22;4238;48.404;9.498;2024-03-07T09:31:41;2.50;99.90
8402;DHT22;4238;48.404;9.498;2024-03-07T09:34:08;2.60;99.90
8402;DHT22;4238;48.404;9.498;2024-03-07T09:36:36;2.60;99.90
8402;DHT22;4238;48.404;9.498;2024-03-07T09:39:04;2.50;99.90
8402;DHT22;4238;48.404;9.498;2024-03-07T09:41:31;2.50;99.90
8402;DHT22;4238;48.404;9.498;2024-03-07T09:43:59;2.60;99.90
8402;DHT22;4238;48.404;9.498;2024-03-07T09:46:26;2.60;99.90
8402;DHT22;4238;48.404;9.498;2024-03-07T09:48:55;2.50;99.90
8402;DHT22;4238;48.404;9.498;2024-03-07T09:51:22;2.60;99.90
8402;DHT22;4238;48.404;9.498;2024-03-07T09:53:53;2.60;99.90
8402;DHT22;4238;48.404;9.498;2024-03-07T09:56:21;2.70;99.90
8402;DHT22;4238;48.404;9.498;2024-03-07T09:58:50;2.70;99.90
8402;DHT22;4238;48.404;9.498;2024-03-07T10:01:20;2.80;99.90
8402;DHT22;4238;48.404;9.498;2024-03-07T10:03:52;2.90;99.90
8402;DHT22;4238;48.404;9.498;2024-03-07T10:06:21;3.10;99.90
8402;DHT22;4238;48.404;9.498;2024-03-07T10:08:50;3.10;99.90
8402;DHT22;4238;48.404;9.498;2024-03-07T10:11:16;3.20;99.90
8402;DHT22;4238;48.404;9.498;2024-03-07T10:13:43;3.20;99.90
8402;DHT22;4238;48.404;9.498;2024-03-07T10:16:15;3.50;99.90
8402;DHT22;4238;48.404;9.498;2024-03-07T10:18:43;3.60;94.60
8402;DHT22;4238;48.404;9.498;2024-03-07T10:21:13;3.70;91.60
8402;DHT22;4238;48.404;9.498;2024-03-07T10:23:42;3.70;96.30
8402;DHT22;4238;48.404;9.498;2024-03-07T10:26:11;3.60;96.50
8402;DHT22;4238;48.404;9.498;2024-03-07T10:28:38;3.60;99.70
8402;DHT22;4238;48.404;9.498;2024-03-07T10:31:05;3.60;99.90
8402;DHT22;4238;48.404;9.498;2024-03-07T10:33:36;3.80;99.40
8402;DHT22;4238;48.404;9.498;2024-03-07T10:36:05;4.00;91.60
8402;DHT22;4238;48.404;9.498;2024-03-07T10:38:35;3.80;94.70
8402;DHT22;4238;48.404;9.498;2024-03-07T10:41:03;3.80;93.50
8402;DHT22;4238;48.404;9.498;2024-03-07T10:43:36;3.90;97.20
8402;DHT22;4238;48.404;9.498;2024-03-07T10:46:10;4.10;92.70
8402;DHT22;4238;48.404;9.498;2024-03-07T10:48:39;4.20;91.80
8402;DHT22;4238;48.404;9.498;2024-03-07T10:51:20;4.30;72.20
8402;DHT22;4238;48.404;9.498;2024-03-07T10:53:55;4.30;59.10
8402;DHT22;4238;48.404;9.498;2024-03-07T10:56:35;4.40;58.80
8402;DHT22;4238;48.404;9.498;2024-03-07T10:59:16;4.50;82.20
8402;DHT22;4238;48.404;9.498;2024-03-07T11:01:47;4.60;62.20
8402;DHT22;4238;48.404;9.498;2024-03-07T11:04:16;4.70;59.20
8402;DHT22;4238;48.404;9.498;2024-03-07T11:06:44;4.80;55.10
8402;DHT22;4238;48.404;9.498;2024-03-07T11:09:11;4.70;64.20
8402;DHT22;4238;48.404;9.498;2024-03-07T11:11:39;4.70;59.90
8402;DHT22;4238;48.404;9.498;2024-03-07T11:14:11;4.70;71.10
8402;DHT22;4238;48.404;9.498;2024-03-07T11:16:39;4.70;73.50
8402;DHT22;4238;48.404;9.498;2024-03-07T11:19:21;4.80;72.30
8402;DHT22;4238;48.404;9.498;2024-03-07T11:21:53;4.90;62.80
8402;DHT22;4238;48.404;9.498;2024-03-07T11:24:24;4.80;56.20
8402;DHT22;4238;48.404;9.498;2024-03-07T11:26:52;4.90;40.90
8402;DHT22;4238;48.404;9.498;2024-03-07T11:29:43;4.90;55.00
8402;DHT22;4238;48.404;9.498;2024-03-07T11:32:10;5.00;39.10
8402;DHT22;4238;48.404;9.498;2024-03-07T11:34:39;5.10;39.10
8402;DHT22;4238;48.404;9.498;2024-03-07T11:37:08;5.00;52.70
8402;DHT22;4238;48.404;9.498;2024-03-07T11:39:43;5.00;64.60
8402;DHT22;4238;48.404;9.498;2024-03-07T11:42:20;5.00;66.60
8402;DHT22;4238;48.404;9.498;2024-03-07T11:44:52;4.90;58.30
8402;DHT22;4238;48.404;9.498;2024-03-07T11:47:21;4.70;45.60
8402;DHT22;4238;48.404;9.498;2024-03-07T11:49:51;4.80;32.20
8402;DHT22;4238;48.404;9.498;2024-03-07T11:52:18;4.90;28.40
8402;DHT22;4238;48.404;9.498;2024-03-07T11:54:46;4.80;30.10
8402;DHT22;4238;48.404;9.498;2024-03-07T11:57:14;4.70;28.10
8402;DHT22;4238;48.404;9.498;2024-03-07T11:59:42;4.70;28.60
8402;DHT22;4238;48.404;9.498;2024-03-07T12:02:12;4.60;37.00
8402;DHT22;4238;48.404;9.498;2024-03-07T12:04:41;4.60;56.90
8402;DHT22;4238;48.404;9.498;2024-03-07T12:07:08;4.70;58.30
8402;DHT22;4238;48.404;9.498;2024-03-07T12:09:37;4.60;65.50
8402;DHT22;4238;48.404;9.498;2024-03-07T12:12:04;4.40;79.60
8402;DHT22;4238;48.404;9.498;2024-03-07T12:14:32;4.40;84.10
8402;DHT22;4238;48.404;9.498;2024-03-07T12:17:00;4.40;62.80
8402;DHT22;4238;48.404;9.498;2024-03-07T12:19:28;4.20;82.80
8402;DHT22;4238;48.404;9.498;2024-03-07T12:21:59;4.30;83.60
8402;DHT22;4238;48.404;9.498;2024-03-07T12:24:26;4.30;86.20
8402;DHT22;4238;48.404;9.498;2024-03-07T12:27:03;4.50;64.40
8402;DHT22;4238;48.404;9.498;2024-03-07T12:29:30;4.60;70.00
8402;DHT22;4238;48.404;9.498;2024-03-07T12:31:58;4.60;52.30
8402;DHT22;4238;48.404;9.498;2024-03-07T12:34:27;4.60;56.90
8402;DHT22;4238;48.404;9.498;2024-03-07T12:36:56;4.50;49.20
8402;DHT22;4238;48.404;9.498;2024-03-07T12:39:23;4.40;40.30
8402;DHT22;4238;48.404;9.498;2024-03-07T12:41:58;4.50;52.00
8402;DHT22;4238;48.404;9.498;2024-03-07T12:44:25;4.40;51.50
8402;DHT22;4238;48.404;9.498;2024-03-07T12:46:53;4.40;53.10
8402;DHT22;4238;48.404;9.498;2024-03-07T12:49:21;4.30;83.60
8402;DHT22;4238;48.404;9.498;2024-03-07T12:51:54;4.30;78.40
8402;DHT22;4238;48.404;9.498;2024-03-07T12:54:21;4.30;86.10
8402;DHT22;4238;48.404;9.498;2024-03-07T12:56:48;4.20;92.50
8402;DHT22;4238;48.404;9.498;2024-03-07T12:59:16;4.20;81.00
8402;DHT22;4238;48.404;9.498;2024-03-07T13:01:44;4.20;91.10
8402;DHT22;4238;48.404;9.498;2024-03-07T13:04:13;4.20;81.00
8402;DHT22;4238;48.404;9.498;2024-03-07T13:06:40;4.30;83.20
8402;DHT22;4238;48.404;9.498;2024-03-07T13:09:10;4.40;75.00
8402;DHT22;4238;48.404;9.498;2024-03-07T13:11:38;4.50;89.80
8402;DHT22;4238;48.404;9.498;2024-03-07T13:14:06;4.60;66.30
8402;DHT22;4238;48.404;9.498;2024-03-07T13:16:33;4.60;70.60
8402;DHT22;4238;48.404;9.498;2024-03-07T13:19:00;4.60;68.10
8402;DHT22;4238;48.404;9.498;2024-03-07T13:21:30;4.70;54.40
8402;DHT22;4238;48.404;9.498;2024-03-07T13:23:57;4.70;61.40
8402;DHT22;4238;48.404;9.498;2024-03-07T13:26:28;4.60;53.70
8402;DHT22;4238;48.404;9.498;2024-03-07T13:28:56;4.60;58.70
8402;DHT22;4238;48.404;9.498;2024-03-07T13:31:26;4.50;59.00
8402;DHT22;4238;48.404;9.498;2024-03-07T13:33:54;4.50;69.60
8402;DHT22;4238;48.404;9.498;2024-03-07T13:36:21;4.60;68.80
8402;DHT22;4238;48.404;9.498;2024-03-07T13:38:51;4.60;70.80
8402;DHT22;4238;48.404;9.498;2024-03-07T13:41:18;4.70;65.30
8402;DHT22;4238;48.404;9.498;2024-03-07T13:43:47;4.70;49.30
8402;DHT22;4238;48.404;9.498;2024-03-07T13:46:14;4.60;51.70
8402;DHT22;4238;48.404;9.498;2024-03-07T13:48:43;4.60;70.20
8402;DHT22;4238;48.404;9.498;2024-03-07T13:51:10;4.70;68.10
8402;DHT22;4238;48.404;9.498;2024-03-07T13:53:41;4.80;54.70
8402;DHT22;4238;48.404;9.498;2024-03-07T14:02:25;4.90;47.60
8402;DHT22;4238;48.404;9.498;2024-03-07T14:05:30;4.70;53.70
8402;DHT22;4238;48.404;9.498;2024-03-07T14:08:20;4.70;49.10
8402;DHT22;4238;48.404;9.498;2024-03-07T14:14:10;4.80;38.50
8402;DHT22;4238;48.404;9.498;2024-03-07T14:17:27;4.80;26.30
8402;DHT22;4238;48.404;9.498;2024-03-07T14:20:31;4.70;29.00
8402;DHT22;4238;48.404;9.498;2024-03-07T14:23:10;4.70;35.20
8402;DHT22;4238;48.404;9.498;2024-03-07T14:26:12;4.70;21.20
8402;DHT22;4238;48.404;9.498;2024-03-07T14:29:03;4.70;40.90
8402;DHT22;4238;48.404;9.498;2024-03-07T14:31:37;4.80;19.80
8402;DHT22;4238;48.404;9.498;2024-03-07T14:34:18;4.70;27.00
8402;DHT22;4238;48.404;9.498;2024-03-07T14:36:53;4.70;29.10
8402;DHT22;4238;48.404;9.498;2024-03-07T14:39:20;4.70;24.70
8402;DHT22;4238;48.404;9.498;2024-03-07T14:41:50;4.60;38.10
8402;DHT22;4238;48.404;9.498;2024-03-07T14:44:19;4.60;26.00
8402;DHT22;4238;48.404;9.498;2024-03-07T14:46:48;4.40;28.50
8402;DHT22;4238;48.404;9.498;2024-03-07T14:49:19;4.40;36.90
8402;DHT22;4238;48.404;9.498;2024-03-07T14:51:48;4.30;42.20
8402;DHT22;4238;48.404;9.498;2024-03-07T14:54:19;4.40;33.90
8402;DHT22;4238;48.404;9.498;2024-03-07T14:56:46;4.30;47.90
8402;DHT22;4238;48.404;9.498;2024-03-07T14:59:13;4.50;45.80
8402;DHT22;4238;48.404;9.498;2024-03-07T15:01:41;4.60;44.80
8402;DHT22;4238;48.404;9.498;2024-03-07T15:04:09;4.60;46.90
8402;DHT22;4238;48.404;9.498;2024-03-07T15:06:38;4.50;46.10
8402;DHT22;4238;48.404;9.498;2024-03-07T15:09:05;4.60;58.20
8402;DHT22;4238;48.404;9.498;2024-03-07T15:11:36;4.50;54.50
8402;DHT22;4238;48.404;9.498;2024-03-07T15:14:05;4.50;57.80
8402;DHT22;4238;48.404;9.498;2024-03-07T15:16:34;4.60;29.10
8402;DHT22;4238;48.404;9.498;2024-03-07T15:19:05;4.70;43.90
8402;DHT22;4238;48.404;9.498;2024-03-07T15:21:43;4.80;29.30
8402;DHT22;4238;48.404;9.498;2024-03-07T15:24:49;4.70;45.80
8402;DHT22;4238;48.404;9.498;2024-03-07T15:31:18;4.70;31.00
8402;DHT22;4238;48.404;9.498;2024-03-07T15:33:48;4.50;24.90
8402;DHT22;4238;48.404;9.498;2024-03-07T15:36:36;4.60;30.70
8402;DHT22;4238;48.404;9.498;2024-03-07T15:39:34;4.60;40.00
8402;DHT22;4238;48.404;9.498;2024-03-07T15:42:08;4.70;25.80
8402;DHT22;4238;48.404;9.498;2024-03-07T15:44:40;4.60;42.20
8402;DHT22;4238;48.404;9.498;2024-03-07T15:47:11;4.70;31.50
8402;DHT22;4238;48.404;9.498;2024-03-07T15:49:40;4.70;33.30
8402;DHT22;4238;48.404;9.498;2024-03-07T15:52:08;4.60;28.70
8402;DHT22;4238;48.404;9.498;2024-03-07T15:54:39;4.50;44.60
8402;DHT22;4238;48.404;9.498;2024-03-07T15:57:07;4.40;50.90
8402;DHT22;4238;48.404;9.498;2024-03-07T15:59:34;4.40;41.30
8402;DHT22;4238;48.404;9.498;2024-03-07T16:02:02;4.40;42.00
8402;DHT22;4238;48.404;9.498;2024-03-07T16:04:30;4.30;49.60
8402;DHT22;4238;48.404;9.498;2024-03-07T16:06:58;4.30;53.10
8402;DHT22;4238;48.404;9.498;2024-03-07T16:09:25;4.40;38.60
8402;DHT22;4238;48.404;9.498;2024-03-07T16:11:55;4.40;28.80
8402;DHT22;4238;48.404;9.498;2024-03-07T16:14:21;4.40;32.30
8402;DHT22;4238;48.404;9.498;2024-03-07T16:16:49;4.40;32.60
8402;DHT22;4238;48.404;9.498;2024-03-07T16:19:19;4.30;39.00
8402;DHT22;4238;48.404;9.498;2024-03-07T16:21:47;4.30;49.90
8402;DHT22;4238;48.404;9.498;2024-03-07T16:24:15;4.40;41.00
8402;DHT22;4238;48.404;9.498;2024-03-07T16:26:43;4.30;34.70
8402;DHT22;4238;48.404;9.498;2024-03-07T16:29:12;4.20;35.20
8402;DHT22;4238;48.404;9.498;2024-03-07T16:31:39;4.30;31.70
8402;DHT22;4238;48.404;9.498;2024-03-07T16:34:06;4.30;31.30
8402;DHT22;4238;48.404;9.498;2024-03-07T16:36:33;4.20;25.60
8402;DHT22;4238;48.404;9.498;2024-03-07T16:39:02;4.10;36.20
8402;DHT22;4238;48.404;9.498;2024-03-07T16:41:33;4.10;35.10
8402;DHT22;4238;48.404;9.498;2024-03-07T16:44:01;4.20;30.60
8402;DHT22;4238;48.404;9.498;2024-03-07T16:46:30;4.20;31.30
8402;DHT22;4238;48.404;9.498;2024-03-07T16:49:01;4.20;33.00
8402;DHT22;4238;48.404;9.498;2024-03-07T16:51:33;4.10;21.50
8402;DHT22;4238;48.404;9.498;2024-03-07T16:54:00;4.20;15.90
8402;DHT22;4238;48.404;9.498;2024-03-07T16:56:27;4.20;15.80
8402;DHT22;4238;48.404;9.498;2024-03-07T16:58:54;4.30;11.00
8402;DHT22;4238;48.404;9.498;2024-03-07T17:01:21;4.30;5.80
8402;DHT22;4238;48.404;9.498;2024-03-07T17:03:51;4.30;12.60
8402;DHT22;4238;48.404;9.498;2024-03-07T17:06:17;4.20;8.90
8402;DHT22;4238;48.404;9.498;2024-03-07T17:08:45;4.20;15.50
8402;DHT22;4238;48.404;9.498;2024-03-07T17:11:15;4.20;12.40
8402;DHT22;4238;48.404;9.498;2024-03-07T17:13:43;4.30;14.00
8402;DHT22;4238;48.404;9.498;2024-03-07T17:16:10;4.30;17.30
8402;DHT22;4238;48.404;9.498;2024-03-07T17:18:37;4.20;14.20
8402;DHT22;4238;48.404;9.498;2024-03-07T17:21:05;4.20;16.50
8402;DHT22;4238;48.404;9.498;2024-03-07T17:23:32;4.20;2.70
8402;DHT22;4238;48.404;9.498;2024-03-07T17:25:59;4.10;19.90
8402;DHT22;4238;48.404;9.498;2024-03-07T17:28:26;4.00;25.50
8402;DHT22;4238;48.404;9.498;2024-03-07T17:30:54;4.00;28.00
8402;DHT22;4238;48.404;9.498;2024-03-07T17:33:21;4.00;32.60
8402;DHT22;4238;48.404;9.498;2024-03-07T17:35:50;4.00;34.90
8402;DHT22;4238;48.404;9.498;2024-03-07T17:38:19;4.00;32.80
8402;DHT22;4238;48.404;9.498;2024-03-07T17:40:47;4.00;37.90
8402;DHT22;4238;48.404;9.498;2024-03-07T17:43:14;3.90;44.10
8402;DHT22;4238;48.404;9.498;2024-03-07T17:45:42;3.90;38.60
8402;DHT22;4238;48.404;9.498;2024-03-07T17:48:09;4.00;42.20
8402;DHT22;4238;48.404;9.498;2024-03-07T17:50:36;4.00;30.00
8402;DHT22;4238;48.404;9.498;2024-03-07T17:53:04;4.10;32.50
8402;DHT22;4238;48.404;9.498;2024-03-07T17:55:34;4.00;33.70
8402;DHT22;4238;48.404;9.498;2024-03-07T17:58:02;4.00;31.80
8402;DHT22;4238;48.404;9.498;2024-03-07T18:00:30;4.10;32.80
8402;DHT22;4238;48.404;9.498;2024-03-07T18:03:00;4.00;35.10
8402;DHT22;4238;48.404;9.498;2024-03-07T18:05:30;4.10;33.10
8402;DHT22;4238;48.404;9.498;2024-03-07T18:08:02;4.00;43.60
8402;DHT22;4238;48.404;9.498;2024-03-07T18:10:35;4.00;42.40
8402;DHT22;4238;48.404;9.498;2024-03-07T18:13:03;4.00;46.60
8402;DHT22;4238;48.404;9.498;2024-03-07T18:15:30;4.00;39.70
8402;DHT22;4238;48.404;9.498;2024-03-07T18:17:58;3.90;45.60
8402;DHT22;4238;48.404;9.498;2024-03-07T18:20:29;3.80;51.20
8402;DHT22;4238;48.404;9.498;2024-03-07T18:22:57;3.80;56.90
8402;DHT22;4238;48.404;9.498;2024-03-07T18:25:24;3.70;64.00
8402;DHT22;4238;48.404;9.498;2024-03-07T18:27:54;3.80;56.80
8402;DHT22;4238;48.404;9.498;2024-03-07T18:30:22;3.80;47.70
8402;DHT22;4238;48.404;9.498;2024-03-07T18:32:50;3.90;34.60
8402;DHT22;4238;48.404;9.498;2024-03-07T18:35:17;3.90;36.30
8402;DHT22;4238;48.404;9.498;2024-03-07T18:37:44;3.80;28.10
8402;DHT22;4238;48.404;9.498;2024-03-07T18:40:17;3.80;28.50
8402;DHT22;4238;48.404;9.498;2024-03-07T18:42:47;3.90;22.30
8402;DHT22;4238;48.404;9.498;2024-03-07T18:45:18;3.90;18.10
8402;DHT22;4238;48.404;9.498;2024-03-07T18:47:47;3.90;9.00
8402;DHT22;4238;48.404;9.498;2024-03-07T18:50:17;4.00;11.70
8402;DHT22;4238;48.404;9.498;2024-03-07T18:52:46;4.00;3.80
8402;DHT22;4238;48.404;9.498;2024-03-07T18:55:16;4.00;2.10
8402;DHT22;4238;48.404;9.498;2024-03-07T18:57:49;4.00;1.00
8402;DHT22;4238;48.404;9.498;2024-03-07T19:00:19;4.00;1.00
8402;DHT22;4238;48.404;9.498;2024-03-07T19:02:57;4.00;1.00
8402;DHT22;4238;48.404;9.498;2024-03-07T19:05:26;4.00;1.00
8402;DHT22;4238;48.404;9.498;2024-03-07T19:07:55;3.90;3.30
8402;DHT22;4238;48.404;9.498;2024-03-07T19:10:24;3.80;11.30
8402;DHT22;4238;48.404;9.498;2024-03-07T19:12:54;3.80;12.90
8402;DHT22;4238;48.404;9.498;2024-03-07T19:15:23;3.70;14.50
8402;DHT22;4238;48.404;9.498;2024-03-07T19:17:50;3.70;21.70
8402;DHT22;4238;48.404;9.498;2024-03-07T19:20:17;3.60;26.40
8402;DHT22;4238;48.404;9.498;2024-03-07T19:22:45;3.60;29.40
8402;DHT22;4238;48.404;9.498;2024-03-07T19:25:13;3.70;32.60
8402;DHT22;4238;48.404;9.498;2024-03-07T19:27:43;3.60;34.50
8402;DHT22;4238;48.404;9.498;2024-03-07T19:30:13;3.50;44.40
8402;DHT22;4238;48.404;9.498;2024-03-07T19:32:42;3.50;46.30
8402;DHT22;4238;48.404;9.498;2024-03-07T19:35:09;3.60;39.80
8402;DHT22;4238;48.404;9.498;2024-03-07T19:37:40;3.60;42.80
8402;DHT22;4238;48.404;9.498;2024-03-07T19:40:10;3.60;47.30
8402;DHT22;4238;48.404;9.498;2024-03-07T19:42:38;3.60;50.90
8402;DHT22;4238;48.404;9.498;2024-03-07T19:45:06;3.60;53.80
8402;DHT22;4238;48.404;9.498;2024-03-07T19:47:33;3.60;51.00
8402;DHT22;4238;48.404;9.498;2024-03-07T19:50:01;3.70;55.80
8402;DHT22;4238;48.404;9.498;2024-03-07T19:52:30;3.60;58.40
8402;DHT22;4238;48.404;9.498;2024-03-07T19:54:56;3.60;69.60
8402;DHT22;4238;48.404;9.498;2024-03-07T19:57:24;3.50;73.00
8402;DHT22;4238;48.404;9.498;2024-03-07T19:59:54;3.60;67.20
8402;DHT22;4238;48.404;9.498;2024-03-07T20:02:23;3.60;68.10
8402;DHT22;4238;48.404;9.498;2024-03-07T20:04:50;3.60;69.30
8402;DHT22;4238;48.404;9.498;2024-03-07T20:07:19;3.60;76.60
8402;DHT22;4238;48.404;9.498;2024-03-07T20:09:45;3.60;76.00
8402;DHT22;4238;48.404;9.498;2024-03-07T20:12:13;3.60;79.40
8402;DHT22;4238;48.404;9.498;2024-03-07T20:14:46;3.60;85.60
8402;DHT22;4238;48.404;9.498;2024-03-07T20:17:14;3.60;83.60
8402;DHT22;4238;48.404;9.498;2024-03-07T20:19:41;3.60;85.80
8402;DHT22;4238;48.404;9.498;2024-03-07T20:22:07;3.70;83.90
8402;DHT22;4238;48.404;9.498;2024-03-07T20:24:36;3.60;90.00
8402;DHT22;4238;48.404;9.498;2024-03-07T20:27:04;3.60;90.70
8402;DHT22;4238;48.404;9.498;2024-03-07T20:29:31;3.50;87.90
8402;DHT22;4238;48.404;9.498;2024-03-07T20:31:58;3.50;85.30
8402;DHT22;4238;48.404;9.498;2024-03-07T20:34:25;3.50;90.10
8402;DHT22;4238;48.404;9.498;2024-03-07T20:36:52;3.50;90.00
8402;DHT22;4238;48.404;9.498;2024-03-07T20:39:19;3.50;92.00
8402;DHT22;4238;48.404;9.498;2024-03-07T20:41:50;3.40;92.00
8402;DHT22;4238;48.404;9.498;2024-03-07T20:44:18;3.40;92.80
8402;DHT22;4238;48.404;9.498;2024-03-07T20:46:46;3.40;90.00
8402;DHT22;4238;48.404;9.498;2024-03-07T20:49:13;3.30;91.70
8402;DHT22;4238;48.404;9.498;2024-03-07T20:51:42;3.30;91.60
8402;DHT22;4238;48.404;9.498;2024-03-07T20:54:09;3.20;92.70
8402;DHT22;4238;48.404;9.498;2024-03-07T20:56:40;3.20;93.10
8402;DHT22;4238;48.404;9.498;2024-03-07T20:59:15;3.20;91.80
8402;DHT22;4238;48.404;9.498;2024-03-07T21:01:44;3.20;93.20
8402;DHT22;4238;48.404;9.498;2024-03-07T21:04:13;3.20;91.60
8402;DHT22;4238;48.404;9.498;2024-03-07T21:06:42;3.10;90.20
8402;DHT22;4238;48.404;9.498;2024-03-07T21:09:09;3.00;91.60
8402;DHT22;4238;48.404;9.498;2024-03-07T21:11:38;3.00;94.30
8402;DHT22;4238;48.404;9.498;2024-03-07T21:14:05;3.00;93.40
8402;DHT22;4238;48.404;9.498;2024-03-07T21:16:35;2.90;94.80
8402;DHT22;4238;48.404;9.498;2024-03-07T21:19:02;2.90;95.30
8402;DHT22;4238;48.404;9.498;2024-03-07T21:21:30;3.00;92.80
8402;DHT22;4238;48.404;9.498;2024-03-07T21:23:57;2.90;90.90
8402;DHT22;4238;48.404;9.498;2024-03-07T21:26:27;2.80;95.60
8402;DHT22;4238;48.404;9.498;2024-03-07T21:28:57;2.80;95.50
8402;DHT22;4238;48.404;9.498;2024-03-07T21:31:26;2.80;94.10
8402;DHT22;4238;48.404;9.498;2024-03-07T21:33:58;2.80;94.60
8402;DHT22;4238;48.404;9.498;2024-03-07T21:36:25;2.80;91.90
8402;DHT22;4238;48.404;9.498;2024-03-07T21:38:53;2.70;96.30
8402;DHT22;4238;48.404;9.498;2024-03-07T21:41:20;2.70;97.60
8402;DHT22;4238;48.404;9.498;2024-03-07T21:43:48;2.70;97.70
8402;DHT22;4238;48.404;9.498;2024-03-07T21:46:23;2.70;99.50